createdAt,value
2022-12-01T00:02:09.228Z,2.30
2022-12-01T00:07:19.097Z,3.20
2022-12-01T00:12:28.635Z,3.30
2022-12-01T00:17:38.024Z,2.80
2022-12-01T00:22:50.377Z,2.50
2022-12-01T00:28:00.184Z,3.50
2022-12-01T00:33:09.893Z,4.20
2022-12-01T00:38:19.657Z,3.70
2022-12-01T00:43:29.191Z,3.70
2022-12-01T00:48:38.804Z,4.00
2022-12-01T00:53:48.375Z,3.80
2022-12-01T00:58:57.772Z,4.00
2022-12-01T01:04:07.463Z,3.70
2022-12-01T01:09:18.126Z,3.30
2022-12-01T01:14:27.894Z,4.60
2022-12-01T01:19:37.478Z,2.30
2022-12-01T01:24:46.879Z,2.20
2022-12-01T01:29:56.361Z,3.40
2022-12-01T01:35:06.152Z,3.20
2022-12-01T01:40:16.968Z,2.10
2022-12-01T01:45:30.797Z,1.80
2022-12-01T01:50:40.538Z,3.20
2022-12-01T01:55:50.197Z,3.50
2022-12-01T02:00:59.936Z,2.50
2022-12-01T02:06:11.104Z,2.20
2022-12-01T02:11:53.600Z,2.30
2022-12-01T02:17:19.521Z,2.90
2022-12-01T02:22:43.215Z,2.70
2022-12-01T02:28:17.261Z,2.20
2022-12-01T02:33:36.948Z,2.40
2022-12-01T02:38:57.761Z,2.50
2022-12-01T02:44:15.616Z,2.90
2022-12-01T02:49:32.100Z,2.80
2022-12-01T02:54:42.885Z,2.90
2022-12-01T02:59:56.671Z,2.60
2022-12-01T03:05:15.558Z,2.40
2022-12-01T03:10:41.205Z,2.50
2022-12-01T03:16:00.245Z,1.80
2022-12-01T03:21:15.400Z,3.00
2022-12-01T03:26:30.871Z,2.30
2022-12-01T03:31:46.279Z,2.30
2022-12-01T03:37:02.820Z,2.00
2022-12-01T03:42:19.244Z,2.20
2022-12-01T03:47:32.682Z,2.30
2022-12-01T03:52:51.106Z,2.80
2022-12-01T03:58:05.919Z,2.50
2022-12-01T04:03:25.172Z,3.20
2022-12-01T04:08:37.156Z,3.80
2022-12-01T04:13:46.722Z,4.70
2022-12-01T04:18:56.256Z,3.60
2022-12-01T04:24:05.962Z,4.00
2022-12-01T04:29:16.512Z,3.90
2022-12-01T04:34:26.118Z,3.30
2022-12-01T04:39:35.988Z,3.30
2022-12-01T04:44:45.592Z,5.60
2022-12-01T04:49:55.331Z,5.60
2022-12-01T04:55:05.306Z,6.00
2022-12-01T05:00:18.441Z,5.80
2022-12-01T05:05:28.467Z,7.90
2022-12-01T05:10:40.766Z,4.80
2022-12-01T05:15:52.333Z,4.50
2022-12-01T05:21:04.232Z,5.20
2022-12-01T05:26:17.749Z,6.50
2022-12-01T05:31:27.252Z,5.50
2022-12-01T05:36:39.340Z,5.20
2022-12-01T05:41:49.023Z,7.00
2022-12-01T05:46:58.531Z,6.10
2022-12-01T05:52:08.309Z,4.90
2022-12-01T05:57:17.705Z,7.00
2022-12-01T06:02:28.109Z,6.50
2022-12-01T06:07:40.531Z,7.20
2022-12-01T06:12:50.463Z,7.10
2022-12-01T06:18:04.298Z,6.10
2022-12-01T06:23:13.955Z,5.90
2022-12-01T06:28:24.030Z,3.80
2022-12-01T06:33:33.863Z,6.30
2022-12-01T06:38:43.623Z,6.00
2022-12-01T06:43:53.106Z,6.60
2022-12-01T06:49:02.575Z,5.90
2022-12-01T06:54:14.709Z,6.90
2022-12-01T06:59:24.930Z,4.90
2022-12-01T07:04:35.531Z,9.40
2022-12-01T07:09:44.979Z,8.70
2022-12-01T07:14:54.593Z,8.00
2022-12-01T07:20:04.323Z,5.20
2022-12-01T07:25:14.530Z,2.70
2022-12-01T07:30:28.374Z,17.70
2022-12-01T07:35:38.257Z,6.40
2022-12-01T07:40:47.771Z,43.70
2022-12-01T07:45:57.588Z,29.10
2022-12-01T07:51:08.212Z,10.40
2022-12-01T07:56:18.402Z,8.60
2022-12-01T08:01:28.696Z,14.60
2022-12-01T08:06:38.254Z,7.20
2022-12-01T08:11:47.809Z,6.20
2022-12-01T08:16:57.779Z,7.10
2022-12-01T08:22:07.416Z,9.40
2022-12-01T08:27:17.022Z,12.30
2022-12-01T08:32:26.672Z,11.10
2022-12-01T08:37:36.149Z,14.00
2022-12-01T08:42:45.672Z,7.80
2022-12-01T08:47:59.118Z,9.10
2022-12-01T08:53:09.016Z,11.10
2022-12-01T08:58:18.681Z,8.70
2022-12-01T09:03:28.271Z,8.90
2022-12-01T09:08:38.976Z,8.90
2022-12-01T09:13:54.467Z,9.60
2022-12-01T09:19:04.749Z,6.60
2022-12-01T09:24:16.298Z,8.90
2022-12-01T09:29:26.080Z,9.40
2022-12-01T09:34:35.467Z,10.50
2022-12-01T09:39:44.777Z,9.20
2022-12-01T09:44:58.478Z,10.40
2022-12-01T09:50:16.310Z,9.20
2022-12-01T09:55:27.770Z,10.20
2022-12-01T10:00:43.925Z,8.80
2022-12-01T10:11:37.568Z,8.20
2022-12-01T10:17:01.449Z,9.90
2022-12-01T10:22:55.955Z,6.90
2022-12-01T10:28:26.842Z,9.00
2022-12-01T10:33:56.449Z,9.20
2022-12-01T10:39:08.157Z,16.00
2022-12-01T10:44:20.891Z,22.30
2022-12-01T10:49:42.320Z,16.80
2022-12-01T10:54:51.906Z,14.00
2022-12-01T11:00:06.142Z,16.40
2022-12-01T11:05:29.425Z,11.80
2022-12-01T11:10:40.530Z,14.60
2022-12-01T11:15:57.559Z,10.50
2022-12-01T11:21:17.660Z,11.10
2022-12-01T11:26:32.486Z,10.00
2022-12-01T11:31:47.308Z,10.20
2022-12-01T11:37:02.032Z,9.30
2022-12-01T11:42:26.710Z,8.60
2022-12-01T11:47:36.229Z,8.40
2022-12-01T11:52:52.131Z,5.00
2022-12-01T11:58:05.743Z,8.70
2022-12-01T12:03:26.591Z,8.60
2022-12-01T12:08:58.289Z,7.80
2022-12-01T12:14:32.996Z,9.50
2022-12-01T12:20:17.331Z,12.20
2022-12-01T12:25:47.419Z,6.90
2022-12-01T12:31:10.738Z,3.50
2022-12-01T12:36:37.503Z,6.40
2022-12-01T12:41:53.765Z,5.80
2022-12-01T12:47:20.613Z,6.90
2022-12-01T12:52:38.154Z,19.80
2022-12-01T12:57:54.480Z,9.70
2022-12-01T13:03:14.781Z,7.80
2022-12-01T13:08:31.015Z,14.20
2022-12-01T13:13:48.458Z,27.30
2022-12-01T13:19:05.267Z,28.50
2022-12-01T13:24:23.354Z,8.40
2022-12-01T13:29:45.286Z,13.30
2022-12-01T13:34:55.055Z,11.40
2022-12-01T13:40:24.033Z,9.80
2022-12-01T13:45:38.845Z,11.50
2022-12-01T13:51:08.632Z,9.60
2022-12-01T13:56:47.352Z,8.30
2022-12-01T14:02:19.980Z,26.30
2022-12-01T14:07:37.198Z,10.80
2022-12-01T14:12:50.359Z,10.80
2022-12-01T14:18:09.707Z,10.40
2022-12-01T14:23:31.415Z,11.50
2022-12-01T14:29:33.923Z,10.90
2022-12-01T14:34:44.137Z,11.30
2022-12-01T14:40:04.713Z,11.60
2022-12-01T14:45:21.967Z,11.20
2022-12-01T14:50:46.203Z,9.20
2022-12-01T14:56:01.026Z,4.80
2022-12-01T15:01:15.325Z,6.30
2022-12-01T15:06:28.607Z,7.60
2022-12-01T15:11:40.445Z,9.30
2022-12-01T15:16:50.193Z,9.10
2022-12-01T15:22:00.391Z,9.30
2022-12-01T15:27:28.168Z,8.80
2022-12-01T15:32:43.359Z,9.20
2022-12-01T15:37:54.224Z,6.90
2022-12-01T15:43:17.251Z,11.60
2022-12-01T15:48:35.652Z,9.70
2022-12-01T15:53:51.492Z,9.80
2022-12-01T15:59:15.659Z,12.80
2022-12-01T16:04:28.333Z,11.30
2022-12-01T16:09:41.581Z,8.60
2022-12-01T16:15:13.449Z,13.60
2022-12-01T16:20:32.838Z,12.80
2022-12-01T16:25:45.456Z,12.90
2022-12-01T16:30:56.310Z,11.10
2022-12-01T16:36:07.051Z,11.40
2022-12-01T16:41:38.285Z,13.20
2022-12-01T16:46:48.398Z,14.00
2022-12-01T16:51:59.342Z,15.00
2022-12-01T16:57:13.434Z,12.30
2022-12-01T17:02:23.316Z,7.40
2022-12-01T17:07:33.406Z,9.00
2022-12-01T17:12:43.239Z,8.20
2022-12-01T17:17:53.204Z,7.90
2022-12-01T17:23:03.288Z,12.70
2022-12-01T17:28:12.795Z,10.00
2022-12-01T17:33:22.257Z,10.20
2022-12-01T17:38:31.778Z,10.20
2022-12-01T17:43:42.859Z,11.60
2022-12-01T17:48:52.427Z,13.40
2022-12-01T17:54:01.958Z,14.70
2022-12-01T17:59:11.890Z,11.40
2022-12-01T18:04:21.626Z,14.50
2022-12-01T18:09:30.974Z,11.80
2022-12-01T18:14:41.006Z,16.50
2022-12-01T18:19:50.788Z,11.60
2022-12-01T18:25:00.133Z,14.10
2022-12-01T18:30:12.606Z,10.20
2022-12-01T18:35:23.098Z,9.80
2022-12-01T18:40:37.289Z,12.40
2022-12-01T18:45:46.849Z,10.20
2022-12-01T18:50:59.675Z,12.00
2022-12-01T18:56:12.322Z,16.20
2022-12-01T19:01:30.511Z,9.60
2022-12-01T19:06:43.885Z,9.10
2022-12-01T19:11:59.941Z,7.20
2022-12-01T19:17:09.688Z,19.50
2022-12-01T19:22:19.354Z,9.10
2022-12-01T19:27:30.544Z,12.50
2022-12-01T19:32:40.417Z,11.70
2022-12-01T19:37:50.546Z,7.70
2022-12-01T19:43:00.141Z,8.80
2022-12-01T19:48:10.759Z,9.00
2022-12-01T19:53:20.219Z,8.30
2022-12-01T19:58:29.712Z,8.20
2022-12-01T20:03:40.755Z,9.50
2022-12-01T20:08:51.249Z,11.60
2022-12-01T20:14:01.051Z,11.70
2022-12-01T20:19:11.626Z,10.40
2022-12-01T20:24:23.021Z,8.30
2022-12-01T20:29:34.018Z,7.10
2022-12-01T20:34:43.594Z,7.00
2022-12-01T20:39:53.374Z,9.40
2022-12-01T20:45:02.852Z,10.10
2022-12-01T20:50:13.621Z,8.40
2022-12-01T20:55:24.627Z,8.50
2022-12-01T21:00:35.010Z,6.40
2022-12-01T21:05:46.367Z,6.80
2022-12-01T21:10:56.127Z,5.30
2022-12-01T21:16:13.682Z,7.20
2022-12-01T21:21:31.093Z,8.10
2022-12-01T21:26:43.046Z,7.40
2022-12-01T21:31:56.461Z,9.20
2022-12-01T21:37:18.519Z,7.00
2022-12-01T21:42:32.611Z,7.40
2022-12-01T21:47:42.593Z,6.20
2022-12-01T21:52:52.957Z,6.80
2022-12-01T21:58:02.623Z,8.70
2022-12-01T22:03:37.678Z,9.40
2022-12-01T22:08:53.172Z,8.60
2022-12-01T22:14:16.838Z,8.90
2022-12-01T22:19:32.933Z,7.00
2022-12-01T22:24:47.611Z,8.20
2022-12-01T22:30:00.754Z,5.80
2022-12-01T22:35:37.927Z,6.20
2022-12-01T22:40:55.855Z,6.60
2022-12-01T22:46:34.455Z,7.30
2022-12-01T22:51:50.247Z,6.70
2022-12-01T22:57:13.025Z,7.60
2022-12-01T23:02:31.100Z,6.90
2022-12-01T23:07:43.883Z,5.80
2022-12-01T23:12:56.397Z,5.10
2022-12-01T23:18:16.224Z,6.30
2022-12-01T23:23:32.348Z,6.20
2022-12-01T23:28:42.728Z,7.90
2022-12-01T23:33:52.148Z,7.30
2022-12-01T23:39:08.572Z,6.80
2022-12-01T23:44:26.299Z,6.50
2022-12-01T23:49:38.113Z,7.70
2022-12-01T23:54:48.338Z,8.20
